Home > Products > Valid Products > MTR

000
SAUS43 KBIS 032354
MTRN60
METAR KN60 032352Z AUTO 32018KT M16/M21 A2998 RMK AO1 PK WND
31032/2314 SLP200 T11561211 11133 21156 51002





000
SAUS43 KBIS 032253
MTRN60
METAR KN60 032252Z AUTO 31021G29KT M14/M19 A2998 RMK AO1 PK WND
30033/2205 SLP197 T11441194





000
SAUS43 KBIS 032253
MTRN60
METAR KN60 032252Z AUTO 31021G29KT M14/M19 A2998 RMK AO1 PK WND
30033/2205 SLP197 T11441194





000
SAUS43 KBIS 032203 COR
MTRN60
METAR KN60 032152Z AUTO 31021KT M14/M19 A2997 RMK AO1 PK WND
30032/2058 SLP195 T11391189





000
SAUS43 KBIS 032203 COR
MTRN60
METAR KN60 032152Z AUTO 31021KT M14/M19 A2997 RMK AO1 PK WND
30032/2058 SLP195 T11391189





000
SAUS43 KBIS 032053
MTRN60
METAR KN60 032052Z AUTO 31027G36KT M14/M21 A2997 RMK AO1 PK WND
32037/1955 SLP194 T11441206 56012





000
SAUS43 KBIS 031954
MTRN60
METAR KN60 031952Z AUTO 31030G36KT M14/M20 A2998 RMK AO1 PK WND
31037/1859 SLP195 T11441200





000
SAUS43 KBIS 031954
MTRN60
METAR KN60 031952Z AUTO 31030G36KT M14/M20 A2998 RMK AO1 PK WND
31037/1859 SLP195 T11441200





000
SAUS43 KBIS 031853
MTRN60
METAR KN60 031852Z AUTO 31031G37KT M14/M20 A3000 RMK AO1 PK WND
31037/1805 SLP200 T11441200





000
SAUS43 KBIS 031754
MTRN60
METAR KN60 031752Z AUTO 31023G35KT M14/M19 A3001 RMK AO1 PK WND
30035/1748 SLP204 T11441194 11144 21172 50001





000
SAUS43 KBIS 031754
MTRN60
METAR KN60 031752Z AUTO 31023G35KT M14/M19 A3001 RMK AO1 PK WND
30035/1748 SLP204 T11441194 11144 21172 50001





000
SAUS43 KBIS 031654
MTRN60
METAR KN60 031652Z AUTO 31024G31KT M15/M20 A3001 RMK AO1 PK WND
32034/1617 SLP205 T11501200





000
SAUS43 KBIS 031654
MTRN60
METAR KN60 031652Z AUTO 31024G31KT M15/M20 A3001 RMK AO1 PK WND
32034/1617 SLP205 T11501200





000
SAUS43 KBIS 031554
MTRN60
METAR KN60 031552Z AUTO 31024G28KT M16/M21 A3001 RMK AO1 PK WND
32034/1506 SLP206 T11611211





000
SAUS43 KBIS 031453
MTRN60
METAR KN60 031452Z AUTO 31023G31KT M17/M21 A3001 RMK AO1 PK WND
30031/1443 SLP200 T11671206 53010





000
SAUS43 KBIS 031453
MTRN60
METAR KN60 031452Z AUTO 31023G31KT M17/M21 A3001 RMK AO1 PK WND
30031/1443 SLP200 T11671206 53010





000
SAUS43 KBIS 031354
MTRN60
METAR KN60 031352Z AUTO 31019KT M17/M21 A2999 RMK AO1 PK WND
32027/1302 SLP196 T11721206





000
SAUS43 KBIS 031354
MTRN60
METAR KN60 031352Z AUTO 31019KT M17/M21 A2999 RMK AO1 PK WND
32027/1302 SLP196 T11721206





000
SAUS43 KBIS 031253
MTRN60
METAR KN60 031252Z AUTO 31018G28KT M17/M21 A2998 RMK AO1 PK WND
32028/1245 SLP191 T11671206





000
SAUS43 KBIS 031154
MTRN60
METAR KN60 031152Z AUTO 32019KT M16/M19 A2997 RMK AO1 PK WND
32029/1120 SLP185 70001 T11561194 11089 21156 53016





000
SAUS43 KBIS 031154
MTRN60
METAR KN60 031152Z AUTO 32019KT M16/M19 A2997 RMK AO1 PK WND
32029/1120 SLP185 70001 T11561194 11089 21156 53016





000
SAUS43 KBIS 031053
MTRN60
METAR KN60 031052Z AUTO 32021KT M15/M19 A2994 RMK AO1 PK WND
33033/0953 SLP170 T11501189





000
SAUS43 KBIS 031053
MTRN60
METAR KN60 031052Z AUTO 32021KT M15/M19 A2994 RMK AO1 PK WND
33033/0953 SLP170 T11501189





000
SAUS43 KBIS 030954
MTRN60
METAR KN60 030952Z AUTO 33025G32KT M13/M18 A2990 RMK AO1 PK WND
33037/0936 SLP158 T11331183





000
SAUS43 KBIS 030853
MTRN60
METAR KN60 030852Z AUTO 33024G35KT M12/M17 A2992 RMK AO1 PK WND
32036/0840 SLP164 T11221167 53032





000
SAUS43 KBIS 030853
MTRN60
METAR KN60 030852Z AUTO 33024G35KT M12/M17 A2992 RMK AO1 PK WND
32036/0840 SLP164 T11221167 53032





000
SAUS43 KBIS 030754
MTRN60
METAR KN60 030752Z AUTO 32024G36KT M11/M14 A2988 RMK AO1 PK WND
33036/0745 PRESRR SLP149 T11061144





000
SAUS43 KBIS 030754
MTRN60
METAR KN60 030752Z AUTO 32024G36KT M11/M14 A2988 RMK AO1 PK WND
33036/0745 PRESRR SLP149 T11061144





000
SAUS43 KBIS 030653
MTRN60
METAR KN60 030652Z AUTO 32024G32KT M09/M13 A2985 RMK AO1 PK WND
33034/0613 SLP139 T10941128





000
SAUS43 KBIS 030653
MTRN60
METAR KN60 030652Z AUTO 32024G32KT M09/M13 A2985 RMK AO1 PK WND
33034/0613 SLP139 T10941128





000
SAUS43 KBIS 030554
MTRN60
METAR KN60 030552Z AUTO 33025KT M09/M12 A2982 RMK AO1 PK WND
33035/0456 SLP129 T10891122 10000 21089 400221172 51021





000
SAUS43 KBIS 030554
MTRN60
METAR KN60 030552Z AUTO 33025KT M09/M12 A2982 RMK AO1 PK WND
33035/0456 SLP129 T10891122 10000 21089 400221172 51021





000
SAUS43 KBIS 030453
MTRN60
METAR KN60 030452Z AUTO 33029G34KT M08/M12 A2980 RMK AO1 PK WND
33035/0439 SLP122 T10831117





000
SAUS43 KBIS 030453
MTRN60
METAR KN60 030452Z AUTO 33029G34KT M08/M12 A2980 RMK AO1 PK WND
33035/0439 SLP122 T10831117





000
SAUS43 KBIS 030354
MTRN60
METAR KN60 030352Z AUTO 32026G36KT M07/M11 A2979 RMK AO1 PK WND
32040/0324 SLP121 T10721106





000
SAUS43 KBIS 030354
MTRN60
METAR KN60 030352Z AUTO 32026G36KT M07/M11 A2979 RMK AO1 PK WND
32040/0324 SLP121 T10721106





000
SAUS43 KBIS 030254
MTRN60
METAR KN60 030252Z AUTO 32020KT M04/M07 A2976 RMK AO1 PK WND
32026/0248 SLP109 T10391072 53016





000
SAUS43 KBIS 030254
MTRN60
METAR KN60 030252Z AUTO 32020KT M04/M07 A2976 RMK AO1 PK WND
32026/0248 SLP109 T10391072 53016





000
SAUS43 KBIS 030154
MTRN60
METAR KN60 030152Z AUTO 32009KT M04/M08 A2974 RMK AO1 SLP106
T10441083





000
SAUS43 KBIS 030154
MTRN60
METAR KN60 030152Z AUTO 32009KT M04/M08 A2974 RMK AO1 SLP106
T10441083





000
SAUS43 KBIS 030053
MTRN60
METAR KN60 030052Z AUTO 30007KT M02/M07 A2971 RMK AO1 SLP094
T10221072





000
SAUS43 KBIS 030053
MTRN60
METAR KN60 030052Z AUTO 30007KT M02/M07 A2971 RMK AO1 SLP094
T10221072





000
SAUS43 KBIS 022354
MTRN60
METAR KN60 022352Z AUTO 25006KT M01/M06 A2970 RMK AO1 SLP094
T10061056 10022 21028 55018





000
SAUS43 KBIS 022354
MTRN60
METAR KN60 022352Z AUTO 25006KT M01/M06 A2970 RMK AO1 SLP094
T10061056 10022 21028 55018





000
SAUS43 KBIS 022253
MTRN60
METAR KN60 022252Z AUTO 21008KT 02/M05 A2970 RMK AO1 SLP090
T00221050





000
SAUS43 KBIS 022253
MTRN60
METAR KN60 022252Z AUTO 21008KT 02/M05 A2970 RMK AO1 SLP090
T00221050





000
SAUS43 KBIS 022154
MTRN60
METAR KN60 022152Z AUTO 21014KT 02/M05 A2973 RMK AO1 SLP100
T00171050





000
SAUS43 KBIS 022154
MTRN60
METAR KN60 022152Z AUTO 21014KT 02/M05 A2973 RMK AO1 SLP100
T00171050





000
SAUS43 KBIS 022054
MTRN60
METAR KN60 022052Z AUTO 21015G21KT 01/M06 A2976 RMK AO1 SLP113
T00061056 56043





000
SAUS43 KBIS 021954
MTRN60
METAR KN60 021952Z AUTO 19017KT 00/M07 A2979 RMK AO1 PRESFR SLP124
T00001067





000
SAUS43 KBIS 021853
MTRN60
METAR KN60 021852Z AUTO 18015G22KT M02/M08 A2985 RMK AO1 SLP143
T10171078





000
SAUS43 KBIS 021853
MTRN60
METAR KN60 021852Z AUTO 18015G22KT M02/M08 A2985 RMK AO1 SLP143
T10171078





000
SAUS43 KBIS 021754
MTRN60
METAR KN60 021752Z AUTO 18017G22KT M03/M09 A2990 RMK AO1 SLP160
P0001 60001 T10281094 11028 21172 58050





000
SAUS43 KBIS 021754
MTRN60
METAR KN60 021752Z AUTO 18017G22KT M03/M09 A2990 RMK AO1 SLP160
P0001 60001 T10281094 11028 21172 58050





000
SAUS43 KBIS 021653
MTRN60
METAR KN60 021652Z AUTO 18014G20KT M06/M10 A2995 RMK AO1 SLP182
T10561100





000
SAUS43 KBIS 021653
MTRN60
METAR KN60 021652Z AUTO 18014G20KT M06/M10 A2995 RMK AO1 SLP182
T10561100





000
SAUS43 KBIS 021554
MTRN60
METAR KN60 021552Z AUTO 17013KT M08/M11 A3001 RMK AO1 SLP201
T10831111





000
SAUS43 KBIS 021453
MTRN60
METAR KN60 021452Z AUTO 16011KT M11/M12 A3005 RMK AO1 SLP219
T11061122 57033





000
SAUS43 KBIS 021354
MTRN60
METAR KN60 021352Z AUTO 17009KT M13/M15 A3009 RMK AO1 SLP232
T11331150





000
SAUS43 KBIS 021354
MTRN60
METAR KN60 021352Z AUTO 17009KT M13/M15 A3009 RMK AO1 SLP232
T11331150





000
SAUS43 KBIS 021253
MTRN60
METAR KN60 021252Z AUTO 15007KT M13/M16 A3012 RMK AO1 SLP241
T11331156





000
SAUS43 KBIS 021154
MTRN60
METAR KN60 021152Z AUTO 00000KT M17/M19 A3015 RMK AO1 SLP255
T11721189 11156 21172 56033





000
SAUS43 KBIS 021053
MTRN60
METAR KN60 021052Z AUTO 11004KT M17/M19 A3017 RMK AO1 SLP260
T11721189





000
SAUS43 KBIS 020954
MTRN60
METAR KN60 020952Z AUTO 14003KT M16/M18 A3021 RMK AO1 SLP273
T11611178





000
SAUS43 KBIS 020954
MTRN60
METAR KN60 020952Z AUTO 14003KT M16/M18 A3021 RMK AO1 SLP273
T11611178





000
SAUS43 KBIS 020853
MTRN60
METAR KN60 020852Z AUTO 14003KT M17/M19 A3025 RMK AO1 SLP289
T11721189 56014





000
SAUS43 KBIS 020754
MTRN60
METAR KN60 020752Z AUTO 18003KT M17/M18 A3027 RMK AO1 SLP292
T11671183





000
SAUS43 KBIS 020653
MTRN60
METAR KN60 020652Z AUTO 00000KT M16/M18 A3028 RMK AO1 SLP296
T11561178





000
SAUS43 KBIS 020653
MTRN60
METAR KN60 020652Z AUTO 00000KT M16/M18 A3028 RMK AO1 SLP296
T11561178





000
SAUS43 KBIS 020554
MTRN60
METAR KN60 020552Z AUTO 00000KT M16/M18 A3030 RMK AO1 SLP304
T11561178 11072 21167 410561189 58002





000
SAUS43 KBIS 020453
MTRN60
METAR KN60 020452Z AUTO 00000KT M14/M17 A3031 RMK AO1 SLP307
T11441172





000
SAUS43 KBIS 020453
MTRN60
METAR KN60 020452Z AUTO 00000KT M14/M17 A3031 RMK AO1 SLP307
T11441172





000
SAUS43 KBIS 020354
MTRN60
METAR KN60 020352Z AUTO 00000KT M13/M16 A3031 RMK AO1 SLP307
T11331156





000
SAUS43 KBIS 020354
MTRN60
METAR KN60 020352Z AUTO 00000KT M13/M16 A3031 RMK AO1 SLP307
T11331156





000
SAUS43 KBIS 020253
MTRN60
METAR KN60 020252Z AUTO 25004KT M13/M16 A3031 RMK AO1 SLP306
T11331156 51002





000
SAUS43 KBIS 020154
MTRN60
METAR KN60 020152Z AUTO 28006KT M11/M14 A3030 RMK AO1 SLP305
T11061139





000
SAUS43 KBIS 020154
MTRN60
METAR KN60 020152Z AUTO 28006KT M11/M14 A3030 RMK AO1 SLP305
T11061139





000
SAUS43 KBIS 020053
MTRN60
METAR KN60 020052Z AUTO 27005KT M10/M13 A3030 RMK AO1 SLP305
T11001133





000
SAUS43 KBIS 020053
MTRN60
METAR KN60 020052Z AUTO 27005KT M10/M13 A3030 RMK AO1 SLP305
T11001133





000
SAUS43 KBIS 012354
MTRN60
METAR KN60 012352Z AUTO 29005KT M07/M12 A3030 RMK AO1 SLP302
T10721117 11056 21078 53006





000
SAUS43 KBIS 012354
MTRN60
METAR KN60 012352Z AUTO 29005KT M07/M12 A3030 RMK AO1 SLP302
T10721117 11056 21078 53006





000
SAUS43 KBIS 012253
MTRN60
METAR KN60 012252Z AUTO 31012KT M06/M12 A3029 RMK AO1 SLP299
T10611117





000
SAUS43 KBIS 012253
MTRN60
METAR KN60 012252Z AUTO 31012KT M06/M12 A3029 RMK AO1 SLP299
T10611117





000
SAUS43 KBIS 012154
MTRN60
METAR KN60 012152Z AUTO 33015KT M06/M10 A3028 RMK AO1 SLP295
T10561100





000
SAUS43 KBIS 012154
MTRN60
METAR KN60 012152Z AUTO 33015KT M06/M10 A3028 RMK AO1 SLP295
T10561100





000
SAUS43 KBIS 012053
MTRN60
METAR KN60 012052Z AUTO 33013KT M06/M11 A3028 RMK AO1 SLP297
T10611111 51012





000
SAUS43 KBIS 011954
MTRN60
METAR KN60 011952Z AUTO 30015KT M06/M11 A3027 RMK AO1 SLP295
T10611106





000
SAUS43 KBIS 011853
MTRN60
METAR KN60 011852Z AUTO 30016KT M07/M11 A3027 RMK AO1 SLP293
T10671106





000
SAUS43 KBIS 011853
MTRN60
METAR KN60 011852Z AUTO 30016KT M07/M11 A3027 RMK AO1 SLP293
T10671106





000
SAUS43 KBIS 011754
MTRN60
METAR KN60 011752Z AUTO 31016G24KT M08/M11 A3024 RMK AO1 SLP287
T10781111 11078 21144 51022





000
SAUS43 KBIS 011754
MTRN60
METAR KN60 011752Z AUTO 31016G24KT M08/M11 A3024 RMK AO1 SLP287
T10781111 11078 21144 51022





000
SAUS43 KBIS 011653
MTRN60
METAR KN60 011652Z AUTO 31020KT M09/M12 A3023 RMK AO1 PK WND
32026/1629 SLP282 T10891122





000
SAUS43 KBIS 011653
MTRN60
METAR KN60 011652Z AUTO 31020KT M09/M12 A3023 RMK AO1 PK WND
32026/1629 SLP282 T10891122





000
SAUS43 KBIS 011554
MTRN60
METAR KN60 011552Z AUTO 30017KT M09/M13 A3020 RMK AO1 SLP275
T10941128





000
SAUS43 KBIS 011554
MTRN60
METAR KN60 011552Z AUTO 30017KT M09/M13 A3020 RMK AO1 SLP275
T10941128





000
SAUS43 KBIS 011454
MTRN60
METAR KN60 011452Z AUTO 30016KT M11/M13 A3017 RMK AO1 SLP263
T11061133 53016





000
SAUS43 KBIS 011454
MTRN60
METAR KN60 011452Z AUTO 30016KT M11/M13 A3017 RMK AO1 SLP263
T11061133 53016





000
SAUS43 KBIS 011354
MTRN60
METAR KN60 011352Z AUTO 29012KT M12/M14 A3015 RMK AO1 SLP255
T11221144





000
SAUS43 KBIS 011253
MTRN60
METAR KN60 011252Z AUTO 28011KT M14/M16 A3013 RMK AO1 SLP250
T11391161





000
SAUS43 KBIS 011253
MTRN60
METAR KN60 011252Z AUTO 28011KT M14/M16 A3013 RMK AO1 SLP250
T11391161





000
SAUS43 KBIS 011154
MTRN60
METAR KN60 011152Z AUTO 27009KT M14/M17 A3012 RMK AO1 SLP245
T11441172 11139 21189 55001





000
SAUS43 KBIS 011054
MTRN60
METAR KN60 011052Z AUTO 26008KT M14/M17 A3011 RMK AO1 SLP240
T11441172





000
SAUS43 KBIS 010954
MTRN60
METAR KN60 010952Z AUTO 27007KT M14/M17 A3011 RMK AO1 SLP241
T11441172





000
SAUS43 KBIS 010954
MTRN60
METAR KN60 010952Z AUTO 27007KT M14/M17 A3011 RMK AO1 SLP241
T11441172





000
SAUS43 KBIS 010853
MTRN60
METAR KN60 010852Z AUTO 25007KT M16/M18 A3013 RMK AO1 SLP247
T11611183 56005





000
SAUS43 KBIS 010853
MTRN60
METAR KN60 010852Z AUTO 25007KT M16/M18 A3013 RMK AO1 SLP247
T11611183 56005





000
SAUS43 KBIS 010754
MTRN60
METAR KN60 010752Z AUTO 25005KT M18/M20 A3013 RMK AO1 SLP252
T11781200





000
SAUS43 KBIS 010754
MTRN60
METAR KN60 010752Z AUTO 25005KT M18/M20 A3013 RMK AO1 SLP252
T11781200





000
SAUS43 KBIS 010653
MTRN60
METAR KN60 010652Z AUTO 26008KT M17/M19 A3013 RMK AO1 SLP252
T11721194





000
SAUS43 KBIS 010653
MTRN60
METAR KN60 010652Z AUTO 26008KT M17/M19 A3013 RMK AO1 SLP252
T11721194





000
SAUS43 KBIS 010553
MTRN60
METAR KN60 010552Z AUTO 26005KT M18/M21 A3014 RMK AO1 SLP255
T11831211 11117 21200 411061200 58002





000
SAUS43 KBIS 010553
MTRN60
METAR KN60 010552Z AUTO 26005KT M18/M21 A3014 RMK AO1 SLP255
T11831211 11117 21200 411061200 58002





000
SAUS43 KBIS 010454
MTRN60
METAR KN60 010452Z AUTO 26005KT M19/M22 A3015 RMK AO1 SLP258
T11941217





000
SAUS43 KBIS 010454
MTRN60
METAR KN60 010452Z AUTO 26005KT M19/M22 A3015 RMK AO1 SLP258
T11941217





000
SAUS43 KBIS 010354
MTRN60
METAR KN60 010352Z AUTO 26004KT M19/M21 A3014 RMK AO1 SLP259
T11941211





000
SAUS43 KBIS 010254
MTRN60
METAR KN60 010252Z AUTO 28005KT M17/M19 A3015 RMK AO1 SLP255
T11671194 50004





000
SAUS43 KBIS 010254
MTRN60
METAR KN60 010252Z AUTO 28005KT M17/M19 A3015 RMK AO1 SLP255
T11671194 50004





000
SAUS43 KBIS 010153
MTRN60
METAR KN60 010152Z AUTO 29004KT M16/M18 A3016 RMK AO1 SLP259
T11561183





000
SAUS43 KBIS 010053
MTRN60
METAR KN60 010052Z AUTO 30007KT M14/M18 A3015 RMK AO1 SLP254
T11441183





000
SAUS43 KBIS 010053
MTRN60
METAR KN60 010052Z AUTO 30007KT M14/M18 A3015 RMK AO1 SLP254
T11441183





    US Dept of Commerce
    National Oceanic and Atmospheric Administration
    National Weather Service
    1325 East West Highway
    Silver Spring, MD 20910
    Page Author: NWS Internet Services Team
Disclaimer
Information Quality
Credits
Glossary
Privacy Policy
Freedom of Information Act (FOIA)
About Us
Career Opportunities